RYR0599 GCRR-LEAL
Flight info
| Callsign | RYR0599 |
|---|---|
| Flight time | N/A |
| Altitude | 38000 |
| Route | KORAL UG5 SONSO DCT NIRAL UN871 OSDAM UM985 BARPA M985 PIMOS M445 RIXUR N851 RESTU |
| Aircraft | B38M/M-SDE1FGHILORVWXY/HB1 |
Departure
| Time | N/A |
|---|---|
| Airport | César Manrique-Lanzarote Airport (GCRR) |
Arrival
| Time | 2026-05-01 13:01 |
|---|---|
| Airport | Alicante-Elche Miguel Hernández Airport (LEAL) |
| Time | Latitude | Longitude | Altitude | Speed | Heading |
|---|---|---|---|---|---|
| 2026-05-01 12:10 | 36.10126 | -5.01160 | 38160 ft | 503 kts | 57° |
| 2026-05-01 12:11 | 36.15070 | -4.89778 | 38147 ft | 491 kts | 45° |
| 2026-05-01 12:11 | 36.19565 | -4.83620 | 38147 ft | 484 kts | 39° |
| 2026-05-01 12:12 | 36.24179 | -4.77575 | 38162 ft | 483 kts | 38° |
| 2026-05-01 12:12 | 36.28851 | -4.71528 | 38161 ft | 481 kts | 38° |
| 2026-05-01 12:13 | 36.33441 | -4.65585 | 38157 ft | 480 kts | 38° |
| 2026-05-01 12:13 | 36.38049 | -4.59608 | 38162 ft | 479 kts | 38° |
| 2026-05-01 12:14 | 36.42681 | -4.53589 | 38155 ft | 478 kts | 38° |
| 2026-05-01 12:14 | 36.47244 | -4.47649 | 38156 ft | 477 kts | 38° |
| 2026-05-01 12:15 | 36.51829 | -4.41669 | 38153 ft | 477 kts | 38° |
| 2026-05-01 12:15 | 36.56398 | -4.35700 | 38154 ft | 476 kts | 38° |
| 2026-05-01 12:16 | 36.60949 | -4.29743 | 38156 ft | 475 kts | 38° |
| 2026-05-01 12:16 | 36.65487 | -4.23793 | 38158 ft | 474 kts | 38° |
| 2026-05-01 12:17 | 36.69952 | -4.17807 | 38149 ft | 478 kts | 46° |
| 2026-05-01 12:17 | 36.73418 | -4.10595 | 38154 ft | 484 kts | 52° |
| 2026-05-01 12:18 | 36.76886 | -4.03380 | 38158 ft | 485 kts | 52° |
| 2026-05-01 12:18 | 36.80333 | -3.96152 | 38169 ft | 485 kts | 53° |
| 2026-05-01 12:19 | 36.83770 | -3.88931 | 38167 ft | 483 kts | 53° |
| 2026-05-01 12:19 | 36.87205 | -3.81694 | 38177 ft | 483 kts | 53° |
| 2026-05-01 12:20 | 36.90620 | -3.74485 | 38167 ft | 482 kts | 53° |
| 2026-05-01 12:20 | 36.94010 | -3.67314 | 38178 ft | 481 kts | 53° |
| 2026-05-01 12:21 | 36.97404 | -3.60119 | 38187 ft | 481 kts | 54° |
| 2026-05-01 12:21 | 37.00793 | -3.52917 | 38183 ft | 480 kts | 54° |
| 2026-05-01 12:22 | 37.03604 | -3.46933 | 38165 ft | 479 kts | 54° |
| 2026-05-01 12:22 | 37.07538 | -3.38541 | 38170 ft | 478 kts | 54° |
| 2026-05-01 12:23 | 37.10881 | -3.31394 | 38185 ft | 478 kts | 54° |
| 2026-05-01 12:23 | 37.14194 | -3.24185 | 38176 ft | 478 kts | 57° |
| 2026-05-01 12:24 | 37.17388 | -3.16858 | 38182 ft | 479 kts | 56° |
| 2026-05-01 12:24 | 37.20591 | -3.09541 | 38171 ft | 477 kts | 57° |
| 2026-05-01 12:25 | 37.25376 | -2.98582 | 38177 ft | 477 kts | 57° |
| 2026-05-01 12:26 | 37.28024 | -2.92505 | 38175 ft | 476 kts | 57° |
| 2026-05-01 12:26 | 37.33297 | -2.80366 | 38166 ft | 475 kts | 57° |
| 2026-05-01 12:27 | 37.37532 | -2.70584 | 38172 ft | 476 kts | 57° |
| 2026-05-01 12:28 | 37.42251 | -2.59649 | 38193 ft | 476 kts | 57° |
| 2026-05-01 12:29 | 37.46974 | -2.48668 | 38192 ft | 476 kts | 57° |
| 2026-05-01 12:29 | 37.51686 | -2.37674 | 38205 ft | 475 kts | 58° |
| 2026-05-01 12:30 | 37.56384 | -2.26675 | 38209 ft | 475 kts | 58° |
| 2026-05-01 12:31 | 37.59511 | -2.19332 | 38206 ft | 475 kts | 58° |
| 2026-05-01 12:31 | 37.62627 | -2.11999 | 38209 ft | 474 kts | 58° |
| 2026-05-01 12:32 | 37.65719 | -2.04704 | 38203 ft | 474 kts | 58° |
| 2026-05-01 12:32 | 37.70388 | -1.93661 | 38207 ft | 473 kts | 58° |
| 2026-05-01 12:33 | 37.73483 | -1.86319 | 38204 ft | 473 kts | 58° |
| 2026-05-01 12:33 | 37.76569 | -1.78980 | 37911 ft | 472 kts | 59° |
| 2026-05-01 12:34 | 37.78103 | -1.75327 | 37696 ft | 470 kts | 59° |
| 2026-05-01 12:34 | 37.79635 | -1.71672 | 37689 ft | 468 kts | 59° |
| 2026-05-01 12:34 | 37.81147 | -1.68064 | 37481 ft | 463 kts | 59° |
| 2026-05-01 12:34 | 37.82655 | -1.64459 | 36512 ft | 469 kts | 59° |
| 2026-05-01 12:35 | 37.84193 | -1.60777 | 35522 ft | 471 kts | 60° |
| 2026-05-01 12:35 | 37.85702 | -1.57163 | 34983 ft | 457 kts | 60° |
| 2026-05-01 12:35 | 37.87153 | -1.53683 | 34682 ft | 439 kts | 60° |
| 2026-05-01 12:35 | 37.88559 | -1.50307 | 34285 ft | 431 kts | 60° |
| 2026-05-01 12:36 | 37.89939 | -1.46992 | 33715 ft | 430 kts | 60° |
| 2026-05-01 12:36 | 37.91348 | -1.43604 | 33128 ft | 428 kts | 60° |
| 2026-05-01 12:36 | 37.92726 | -1.40284 | 32662 ft | 424 kts | 60° |
| 2026-05-01 12:36 | 37.94072 | -1.37039 | 32224 ft | 420 kts | 60° |
| 2026-05-01 12:37 | 37.95442 | -1.33733 | 31761 ft | 417 kts | 60° |
| 2026-05-01 12:37 | 37.96769 | -1.30526 | 31289 ft | 415 kts | 60° |
| 2026-05-01 12:37 | 37.98106 | -1.27294 | 30835 ft | 413 kts | 60° |
| 2026-05-01 12:37 | 37.99438 | -1.24068 | 30369 ft | 412 kts | 60° |
| 2026-05-01 12:38 | 38.00759 | -1.20867 | 29837 ft | 410 kts | 60° |
| 2026-05-01 12:38 | 38.02075 | -1.17673 | 29336 ft | 408 kts | 60° |
| 2026-05-01 12:38 | 38.03388 | -1.14483 | 28888 ft | 405 kts | 60° |
| 2026-05-01 12:38 | 38.04693 | -1.11312 | 28421 ft | 403 kts | 60° |
| 2026-05-01 12:39 | 38.05981 | -1.08179 | 27966 ft | 401 kts | 60° |
| 2026-05-01 12:39 | 38.07270 | -1.05036 | 27506 ft | 399 kts | 60° |
| 2026-05-01 12:39 | 38.08550 | -1.01917 | 27054 ft | 398 kts | 60° |
| 2026-05-01 12:39 | 38.09823 | -0.98810 | 26593 ft | 396 kts | 60° |
| 2026-05-01 12:40 | 38.11088 | -0.95720 | 26136 ft | 394 kts | 61° |
| 2026-05-01 12:40 | 38.12347 | -0.92640 | 25697 ft | 393 kts | 61° |
| 2026-05-01 12:40 | 38.13610 | -0.89548 | 25241 ft | 393 kts | 61° |
| 2026-05-01 12:40 | 38.14867 | -0.86470 | 24788 ft | 393 kts | 61° |
| 2026-05-01 12:41 | 38.16130 | -0.83371 | 24326 ft | 394 kts | 61° |
| 2026-05-01 12:41 | 38.17388 | -0.80284 | 23877 ft | 394 kts | 62° |
| 2026-05-01 12:41 | 38.18644 | -0.77195 | 23360 ft | 394 kts | 62° |
| 2026-05-01 12:41 | 38.19886 | -0.74141 | 22874 ft | 393 kts | 62° |
| 2026-05-01 12:42 | 38.21150 | -0.71029 | 22474 ft | 389 kts | 62° |
| 2026-05-01 12:42 | 38.22361 | -0.68045 | 22330 ft | 379 kts | 62° |
| 2026-05-01 12:42 | 38.23781 | -0.65272 | 21918 ft | 372 kts | 44° |
| 2026-05-01 12:42 | 38.25811 | -0.63379 | 21472 ft | 355 kts | 21° |
| 2026-05-01 12:43 | 38.28131 | -0.62614 | 21000 ft | 339 kts | 0° |
| 2026-05-01 12:43 | 38.30402 | -0.62957 | 20531 ft | 324 kts | 338° |
| 2026-05-01 12:43 | 38.32329 | -0.64291 | 20077 ft | 310 kts | 317° |
| 2026-05-01 12:43 | 38.33891 | -0.66117 | 19643 ft | 301 kts | 315° |
| 2026-05-01 12:44 | 38.35404 | -0.67917 | 19220 ft | 294 kts | 314° |
| 2026-05-01 12:44 | 38.36869 | -0.69703 | 18792 ft | 288 kts | 314° |
| 2026-05-01 12:44 | 38.39717 | -0.73237 | 17848 ft | 287 kts | 313° |
| 2026-05-01 12:45 | 38.42583 | -0.76835 | 16890 ft | 291 kts | 313° |
| 2026-05-01 12:45 | 38.44030 | -0.78659 | 16417 ft | 293 kts | 313° |
| 2026-05-01 12:45 | 38.45486 | -0.80498 | 15955 ft | 295 kts | 313° |
| 2026-05-01 12:46 | 38.46950 | -0.82348 | 15486 ft | 296 kts | 313° |
| 2026-05-01 12:46 | 38.48412 | -0.84196 | 15039 ft | 298 kts | 313° |
| 2026-05-01 12:46 | 38.49891 | -0.86068 | 14588 ft | 299 kts | 313° |
| 2026-05-01 12:46 | 38.51352 | -0.87918 | 14145 ft | 293 kts | 313° |
| 2026-05-01 12:47 | 38.52766 | -0.89709 | 13684 ft | 286 kts | 313° |
| 2026-05-01 12:47 | 38.54180 | -0.91501 | 13202 ft | 280 kts | 313° |
| 2026-05-01 12:47 | 38.55553 | -0.93242 | 12704 ft | 275 kts | 313° |
| 2026-05-01 12:47 | 38.56907 | -0.94888 | 12246 ft | 271 kts | 321° |
| 2026-05-01 12:48 | 38.58633 | -0.95844 | 11751 ft | 270 kts | 351° |
| 2026-05-01 12:48 | 38.60463 | -0.95667 | 11280 ft | 268 kts | 17° |
| 2026-05-01 12:48 | 38.62064 | -0.94504 | 10814 ft | 266 kts | 43° |
| 2026-05-01 12:48 | 38.63107 | -0.92550 | 10342 ft | 264 kts | 71° |
| 2026-05-01 12:49 | 38.63373 | -0.90287 | 9860 ft | 261 kts | 96° |
| 2026-05-01 12:49 | 38.62859 | -0.88091 | 9358 ft | 257 kts | 122° |
| 2026-05-01 12:49 | 38.61687 | -0.86418 | 8869 ft | 252 kts | 144° |
| 2026-05-01 12:49 | 38.60216 | -0.85228 | 8400 ft | 250 kts | 155° |
| 2026-05-01 12:50 | 38.58618 | -0.84406 | 7948 ft | 248 kts | 165° |
| 2026-05-01 12:50 | 38.56942 | -0.84001 | 7569 ft | 241 kts | 176° |
| 2026-05-01 12:50 | 38.55272 | -0.84033 | 7284 ft | 241 kts | 188° |
| 2026-05-01 12:50 | 38.53634 | -0.84500 | 6991 ft | 241 kts | 199° |
| 2026-05-01 12:51 | 38.52111 | -0.85379 | 6716 ft | 240 kts | 211° |
| 2026-05-01 12:51 | 38.50765 | -0.86625 | 6422 ft | 240 kts | 222° |
| 2026-05-01 12:51 | 38.48352 | -0.89561 | 5822 ft | 240 kts | 220° |
| 2026-05-01 12:52 | 38.47053 | -0.90893 | 5522 ft | 238 kts | 217° |
| 2026-05-01 12:52 | 38.44413 | -0.93213 | 4929 ft | 223 kts | 211° |
| 2026-05-01 12:52 | 38.43115 | -0.94192 | 4624 ft | 216 kts | 209° |
| 2026-05-01 12:53 | 38.40429 | -0.95914 | 4208 ft | 214 kts | 204° |
| 2026-05-01 12:53 | 38.39069 | -0.96644 | 4215 ft | 215 kts | 200° |
| 2026-05-01 12:53 | 38.37630 | -0.97089 | 4199 ft | 213 kts | 187° |
| 2026-05-01 12:54 | 38.36155 | -0.97316 | 4226 ft | 211 kts | 180° |
| 2026-05-01 12:54 | 38.33961 | -0.95438 | 4242 ft | 197 kts | 127° |
| 2026-05-01 12:54 | 38.33415 | -0.93842 | 4166 ft | 197 kts | 99° |
| 2026-05-01 12:55 | 38.32960 | -0.90366 | 4074 ft | 200 kts | 99° |
| 2026-05-01 12:55 | 38.32738 | -0.88625 | 3904 ft | 199 kts | 99° |
| 2026-05-01 12:55 | 38.32519 | -0.86886 | 3761 ft | 198 kts | 100° |
| 2026-05-01 12:56 | 38.32282 | -0.85160 | 3612 ft | 197 kts | 101° |
| 2026-05-01 12:56 | 38.32042 | -0.83436 | 3465 ft | 197 kts | 101° |
| 2026-05-01 12:56 | 38.31807 | -0.81724 | 3325 ft | 197 kts | 100° |
| 2026-05-01 12:56 | 38.31584 | -0.80050 | 3345 ft | 184 kts | 100° |
| 2026-05-01 12:57 | 38.31368 | -0.78485 | 3310 ft | 177 kts | 101° |
| 2026-05-01 12:57 | 38.30947 | -0.75425 | 2904 ft | 169 kts | 100° |
| 2026-05-01 12:57 | 38.30747 | -0.73991 | 2694 ft | 159 kts | 101° |
| 2026-05-01 12:58 | 38.30558 | -0.72633 | 2495 ft | 153 kts | 101° |
| 2026-05-01 12:58 | 38.30372 | -0.71303 | 2304 ft | 151 kts | 101° |
| 2026-05-01 12:58 | 38.30195 | -0.70026 | 2115 ft | 141 kts | 101° |
| 2026-05-01 12:59 | 38.29862 | -0.67631 | 1777 ft | 135 kts | 101° |
| 2026-05-01 12:59 | 38.29700 | -0.66471 | 1585 ft | 134 kts | 101° |
| 2026-05-01 12:59 | 38.29374 | -0.64118 | 1220 ft | 136 kts | 100° |
| 2026-05-01 13:00 | 38.29041 | -0.61732 | 842 ft | 137 kts | 98° |
| 2026-05-01 13:00 | 38.28876 | -0.60547 | 674 ft | 136 kts | 99° |
| 2026-05-01 13:01 | 38.28554 | -0.58228 | 314 ft | 130 kts | 100° |
| 2026-05-01 13:01 | 38.28397 | -0.57108 | 161 ft | 123 kts | 100° |
| 2026-05-01 13:01 | 38.28195 | -0.55638 | 100 ft | 9 kts | 84° |
| 2026-05-01 13:02 | 38.28236 | -0.55518 | 94 ft | 12 kts | 63° |
| 2026-05-01 13:07 | 38.28555 | -0.55509 | 98 ft | 0 kts | 13° |